Time;durP1;ratioP1;P1;durP2;ratioP2;P2;SDS_P1;SDS_P2;PMS_P1;PMS_P2;Temp;Humidity;BMP_temperature;BMP_pressure;BME280_temperature;BME280_humidity;BME280_pressure;Samples;Min_cycle;Max_cycle;Signal;HPM_P1;HPM_P2
2023/11/23 00:00:21;;;;;;;33.42;23.15;;;204.80;2252.80;;;;;;5058434;28;20025;-69
2023/11/23 00:02:46;;;;;;;85.18;77.70;;;204.90;2252.80;;;;;;5056888;28;20031;-62
2023/11/23 00:05:12;;;;;;;35.88;27.17;;;204.80;2252.80;;;;;;5064850;28;20030;-63
2023/11/23 00:07:38;;;;;;;31.45;24.85;;;204.80;2252.80;;;;;;5067326;28;20029;-64
2023/11/23 00:10:04;;;;;;;28.95;21.55;;;180.10;2252.80;;;;;;5067607;28;20502;-62
2023/11/23 00:12:30;;;;;;;31.83;23.10;;;204.90;2252.80;;;;;;5067577;28;20072;-65
2023/11/23 00:14:56;;;;;;;33.80;23.60;;;205.00;2252.80;;;;;;5067922;28;20491;-61
2023/11/23 00:17:22;;;;;;;26.50;20.23;;;204.90;2252.80;;;;;;5072140;28;20024;-70
2023/11/23 00:19:48;;;;;;;31.05;23.10;;;204.90;2252.80;;;;;;5071193;28;20475;-65
2023/11/23 00:22:15;;;;;;;34.08;25.00;;;204.90;2252.80;;;;;;5071654;28;20637;-60
2023/11/23 00:24:41;;;;;;;28.25;18.63;;;205.00;2252.80;;;;;;5071584;28;20054;-62
2023/11/23 00:27:06;;;;;;;30.55;20.70;;;205.00;2252.80;;;;;;5071453;28;20021;-62
2023/11/23 00:29:32;;;;;;;35.35;24.10;;;205.10;2252.80;;;;;;5071401;28;20032;-61
2023/11/23 00:31:58;;;;;;;25.45;18.75;;;205.20;2252.80;;;;;;5071348;28;20033;-67
2023/11/23 00:34:24;;;;;;;26.67;17.35;;;205.00;2252.80;;;;;;5071118;28;20463;-62
2023/11/23 00:36:49;;;;;;;24.40;16.83;;;205.00;2252.80;;;;;;5071474;28;20025;-62
2023/11/23 00:39:15;;;;;;;22.50;16.65;;;205.00;2252.80;;;;;;5070878;28;20433;-70
2023/11/23 00:41:41;;;;;;;25.10;16.90;;;205.00;2252.80;;;;;;5071056;28;20033;-64
2023/11/23 00:44:07;;;;;;;25.98;16.17;;;205.10;2252.80;;;;;;5068784;28;20025;-68
2023/11/23 00:46:35;;;;;;;37.58;27.20;;;205.00;2252.80;;;;;;5041394;28;20028;-63
2023/11/23 00:49:01;;;;;;;46.42;34.40;;;205.30;2252.80;;;;;;5060988;28;20020;-70
2023/11/23 00:51:27;;;;;;;48.15;37.33;;;205.10;2252.80;;;;;;5061104;28;20036;-62
2023/11/23 00:53:53;;;;;;;38.08;29.95;;;205.10;2252.80;;;;;;5059655;28;20021;-67
2023/11/23 00:56:19;;;;;;;25.98;20.38;;;205.10;2252.80;;;;;;5061204;28;20052;-69
2023/11/23 00:58:44;;;;;;;22.05;17.08;;;205.10;2252.80;;;;;;5060166;28;20028;-63
2023/11/23 01:01:17;;;;;;;23.63;15.93;;;205.10;2252.80;;;;;;5059652;28;20020;-67
2023/11/23 01:03:43;;;;;;;24.17;17.38;;;204.90;2252.80;;;;;;5061551;28;20044;-62
2023/11/23 01:06:09;;;;;;;25.80;17.75;;;204.80;2252.80;;;;;;5061186;28;20017;-62
2023/11/23 01:08:34;;;;;;;24.45;17.73;;;180.10;2252.80;;;;;;5059656;28;20047;-68
2023/11/23 01:11:01;;;;;;;23.65;15.95;;;180.10;2252.80;;;;;;5061310;28;20068;-62
2023/11/23 01:13:27;;;;;;;21.27;15.15;;;180.00;2252.80;;;;;;5060821;28;20029;-65
2023/11/23 01:15:53;;;;;;;27.23;16.02;;;180.00;2252.80;;;;;;5059211;28;20079;-66
2023/11/23 01:18:19;;;;;;;22.02;15.57;;;180.00;2252.80;;;;;;5060789;28;20120;-70
2023/11/23 01:20:45;;;;;;;25.55;15.85;;;180.10;2252.80;;;;;;5061896;28;20382;-62
2023/11/23 01:23:13;;;;;;;20.27;14.25;;;179.90;2252.80;;;;;;5071909;28;20033;-62
2023/11/23 01:25:39;;;;;;;18.83;13.93;;;180.00;2252.80;;;;;;5071836;28;20047;-70
2023/11/23 01:28:05;;;;;;;21.02;13.98;;;179.90;2252.80;;;;;;5071859;28;20478;-61
2023/11/23 01:30:31;;;;;;;19.88;12.40;;;180.00;2252.80;;;;;;5072030;28;20024;-70
2023/11/23 01:32:56;;;;;;;17.33;12.40;;;179.80;2252.80;;;;;;5072011;28;20462;-70
2023/11/23 01:35:22;;;;;;;19.95;13.25;;;179.70;2252.80;;;;;;5071906;28;20036;-69
2023/11/23 01:37:49;;;;;;;17.35;12.95;;;179.80;2252.80;;;;;;5071906;28;20032;-61
2023/11/23 01:40:16;;;;;;;17.52;12.85;;;179.60;2252.80;;;;;;5071945;28;20024;-62
2023/11/23 01:42:42;;;;;;;19.67;12.77;;;179.60;2252.80;;;;;;5071785;28;20037;-61
2023/11/23 01:45:09;;;;;;;17.75;12.25;;;179.60;2252.80;;;;;;5071605;28;20107;-69
2023/11/23 01:47:41;;;;;;;18.25;11.77;;;179.60;2252.80;;;;;;5072021;28;20107;-61
2023/11/23 01:50:08;;;;;;;17.67;11.07;;;179.50;2252.80;;;;;;5053045;28;20033;-62
2023/11/23 01:52:35;;;;;;;20.48;13.45;;;179.50;2252.80;;;;;;5071647;28;20040;-62
2023/11/23 01:55:02;;;;;;;16.00;12.55;;;179.40;2252.80;;;;;;5071435;28;20021;-69
2023/11/23 01:57:32;;;;;;;16.42;12.25;;;179.50;2252.80;;;;;;5071325;28;20051;-61
2023/11/23 01:59:59;;;;;;;17.27;12.18;;;179.50;2252.80;;;;;;5071455;28;20082;-61
2023/11/23 02:02:28;;;;;;;18.35;12.93;;;179.60;2252.80;;;;;;5071430;28;20059;-63
2023/11/23 02:04:58;;;;;;;16.15;11.82;;;179.60;2252.80;;;;;;5071472;28;20020;-62
2023/11/23 02:07:25;;;;;;;16.60;12.70;;;179.70;2252.80;;;;;;5071498;28;20059;-61
2023/11/23 02:09:51;;;;;;;15.15;11.93;;;179.60;2252.80;;;;;;5070859;28;20032;-61
2023/11/23 02:12:18;;;;;;;18.65;13.90;;;179.40;2252.80;;;;;;5071102;28;20059;-61
2023/11/23 02:14:44;;;;;;;18.50;12.32;;;179.50;2252.80;;;;;;5071242;28;20029;-61
2023/11/23 02:17:16;;;;;;;18.65;12.30;;;179.50;2252.80;;;;;;5070999;28;20024;-66
2023/11/23 02:19:44;;;;;;;19.98;13.65;;;179.50;2252.80;;;;;;5070952;28;20429;-68
2023/11/23 02:22:09;;;;;;;25.05;16.48;;;179.40;2252.80;;;;;;5070838;28;20040;-61
2023/11/23 02:24:36;;;;;;;26.20;16.83;;;179.30;2252.80;;;;;;5070958;28;20029;-64
2023/11/23 02:27:02;;;;;;;26.02;17.15;;;179.40;2252.80;;;;;;5070946;28;20394;-60
2023/11/23 02:29:27;;;;;;;22.17;16.60;;;179.30;2252.80;;;;;;5070539;28;20028;-60
2023/11/23 02:31:53;;;;;;;28.02;17.52;;;179.30;2252.80;;;;;;5070728;28;20054;-67
2023/11/23 02:34:19;;;;;;;26.42;17.90;;;179.20;2252.80;;;;;;5070557;28;20023;-62
2023/11/23 02:36:46;;;;;;;24.08;15.95;;;179.20;2252.80;;;;;;5070792;28;20615;-61
2023/11/23 02:39:11;;;;;;;25.90;18.25;;;179.30;2252.80;;;;;;5069569;28;20103;-61
2023/11/23 02:41:37;;;;;;;32.28;17.33;;;179.40;2252.80;;;;;;5070446;28;20052;-61
2023/11/23 02:44:03;;;;;;;26.52;16.80;;;179.30;2252.80;;;;;;5052172;28;20064;-62
2023/11/23 02:46:29;;;;;;;26.48;16.30;;;179.30;2252.80;;;;;;5070369;28;20447;-61
2023/11/23 02:48:54;;;;;;;24.30;17.05;;;179.30;2252.80;;;;;;5070452;28;20535;-61
2023/11/23 02:51:20;;;;;;;23.90;17.33;;;179.20;2252.80;;;;;;5070204;28;20029;-62
2023/11/23 02:53:47;;;;;;;26.50;16.80;;;179.30;2252.80;;;;;;5070515;28;20074;-62
2023/11/23 02:56:15;;;;;;;22.88;15.25;;;179.40;2252.80;;;;;;5071145;28;20032;-62
2023/11/23 02:58:41;;;;;;;24.42;16.60;;;179.40;2252.80;;;;;;5070076;28;20482;-62
2023/11/23 03:01:07;;;;;;;26.83;16.50;;;179.40;2252.80;;;;;;5070193;28;20378;-62
2023/11/23 03:03:33;;;;;;;44.67;24.80;;;179.20;2252.80;;;;;;5070431;28;20021;-62
2023/11/23 03:06:00;;;;;;;28.85;17.65;;;179.20;2252.80;;;;;;5069943;28;20425;-61
2023/11/23 03:08:26;;;;;;;31.45;21.35;;;179.30;2252.80;;;;;;5070104;28;20119;-62
2023/11/23 03:10:53;;;;;;;29.60;18.45;;;179.20;2252.80;;;;;;5069646;28;20127;-66
2023/11/23 03:13:19;;;;;;;24.83;17.25;;;179.30;2252.80;;;;;;5069831;28;20430;-62
2023/11/23 03:15:45;;;;;;;28.60;17.63;;;179.30;2252.80;;;;;;5070248;28;20112;-68
2023/11/23 03:18:11;;;;;;;26.08;17.45;;;154.50;2252.80;;;;;;5069726;28;20056;-69
2023/11/23 03:20:36;;;;;;;24.45;16.67;;;154.40;2252.80;;;;;;5070239;28;20028;-62
2023/11/23 03:23:02;;;;;;;24.73;16.98;;;154.40;2252.80;;;;;;5069226;28;20074;-65
2023/11/23 03:25:28;;;;;;;26.60;17.83;;;179.30;2252.80;;;;;;5069585;28;20036;-62
2023/11/23 03:27:53;;;;;;;26.42;17.52;;;179.30;2252.80;;;;;;5069884;28;20509;-62
2023/11/23 03:30:19;;;;;;;26.65;18.90;;;179.20;2252.80;;;;;;5069642;28;20024;-61
2023/11/23 03:32:45;;;;;;;25.27;17.88;;;179.20;2252.80;;;;;;5069939;28;20036;-62
2023/11/23 03:35:12;;;;;;;24.42;16.33;;;179.30;2252.80;;;;;;5069626;28;20025;-62
2023/11/23 03:37:37;;;;;;;24.85;16.33;;;154.50;2252.80;;;;;;5069765;28;20036;-61
2023/11/23 03:40:04;;;;;;;31.30;18.90;;;154.50;2252.80;;;;;;5069636;28;20025;-62
2023/11/23 03:42:30;;;;;;;34.78;23.13;;;179.30;2252.80;;;;;;5069398;28;20043;-62
2023/11/23 03:44:55;;;;;;;29.75;19.63;;;179.30;2252.80;;;;;;5069657;28;20024;-61
2023/11/23 03:47:21;;;;;;;38.15;18.73;;;179.30;2252.80;;;;;;5069654;28;20035;-63
2023/11/23 03:49:47;;;;;;;46.40;29.98;;;154.50;2252.80;;;;;;5069181;28;20043;-62
2023/11/23 03:52:12;;;;;;;25.67;17.15;;;179.20;2252.80;;;;;;5069829;28;20120;-61
2023/11/23 03:54:38;;;;;;;23.63;16.83;;;179.20;2252.80;;;;;;5069423;28;20501;-61
2023/11/23 03:57:04;;;;;;;27.77;18.52;;;179.20;2252.80;;;;;;5069531;28;20024;-61
2023/11/23 03:59:30;;;;;;;23.98;16.63;;;154.50;2252.80;;;;;;5069449;28;20441;-61
2023/11/23 04:01:55;;;;;;;31.60;20.70;;;154.40;2252.80;;;;;;5069475;28;20086;-61
2023/11/23 04:04:21;;;;;;;24.58;17.58;;;154.50;2252.80;;;;;;5069454;28;20035;-60
2023/11/23 04:06:48;;;;;;;23.02;14.98;;;154.20;2252.80;;;;;;5051019;28;20536;-70
2023/11/23 04:09:17;;;;;;;23.90;16.77;;;154.40;2252.80;;;;;;5050939;28;20371;-61
2023/11/23 04:11:43;;;;;;;22.90;17.23;;;154.50;2252.80;;;;;;5069161;28;20061;-63
2023/11/23 04:14:10;;;;;;;27.73;18.60;;;154.50;2252.80;;;;;;5069192;28;20044;-62
2023/11/23 04:16:36;;;;;;;30.00;20.77;;;179.20;2252.80;;;;;;5051177;28;20039;-61
2023/11/23 04:19:02;;;;;;;23.92;16.13;;;154.50;2252.80;;;;;;5069311;28;20021;-61
2023/11/23 04:21:28;;;;;;;27.10;16.33;;;179.20;2252.80;;;;;;5050226;28;20029;-61
2023/11/23 04:23:54;;;;;;;22.75;15.85;;;179.30;2252.80;;;;;;5069206;28;20027;-60
2023/11/23 04:26:20;;;;;;;23.42;16.13;;;154.40;2252.80;;;;;;5068982;28;20029;-61
2023/11/23 04:28:45;;;;;;;20.88;15.75;;;154.40;2252.80;;;;;;5069107;28;20086;-61
2023/11/23 04:31:11;;;;;;;20.80;15.73;;;154.40;2252.80;;;;;;5068884;28;20032;-61
2023/11/23 04:33:37;;;;;;;24.23;16.20;;;154.50;2252.80;;;;;;5068975;28;20024;-61
2023/11/23 04:36:04;;;;;;;21.85;16.02;;;154.50;2252.80;;;;;;5069130;28;20028;-61
2023/11/23 04:38:29;;;;;;;20.60;14.20;;;154.50;2252.80;;;;;;5069043;28;20632;-61
2023/11/23 04:40:56;;;;;;;25.55;14.57;;;154.50;2252.80;;;;;;5068830;28;20167;-61
2023/11/23 04:43:22;;;;;;;21.25;14.82;;;154.50;2252.80;;;;;;5068774;28;20028;-61
2023/11/23 04:45:47;;;;;;;24.67;15.40;;;179.20;2252.80;;;;;;5069037;28;20028;-61
2023/11/23 04:48:13;;;;;;;20.98;14.00;;;179.20;2252.80;;;;;;5069301;28;20518;-62
2023/11/23 04:50:39;;;;;;;17.08;12.98;;;179.30;2252.80;;;;;;5068785;28;20406;-63
2023/11/23 04:53:05;;;;;;;19.02;13.50;;;179.30;2252.80;;;;;;5068968;28;20082;-71
2023/11/23 04:55:32;;;;;;;27.40;16.63;;;179.40;2252.80;;;;;;5068857;28;20016;-61
2023/11/23 04:57:57;;;;;;;22.35;16.15;;;179.40;2252.80;;;;;;5068740;28;20036;-61
2023/11/23 05:00:26;;;;;;;28.83;18.60;;;179.30;2252.80;;;;;;5069055;28;20428;-69
2023/11/23 05:02:51;;;;;;;23.63;15.63;;;179.30;2252.80;;;;;;5071834;28;20078;-62
2023/11/23 05:05:17;;;;;;;20.85;14.02;;;179.30;2252.80;;;;;;5072520;28;20028;-62
2023/11/23 05:07:43;;;;;;;36.22;23.73;;;179.30;2252.80;;;;;;5072581;28;20036;-67
2023/11/23 05:10:09;;;;;;;25.17;16.98;;;179.40;2252.80;;;;;;5071809;28;20127;-61
2023/11/23 05:12:35;;;;;;;23.48;16.20;;;179.40;2252.80;;;;;;5072224;28;20041;-70
2023/11/23 05:15:01;;;;;;;23.73;15.07;;;179.30;2252.80;;;;;;5071918;28;20047;-70
2023/11/23 05:17:30;;;;;;;21.25;14.80;;;179.40;2252.80;;;;;;5072535;28;20060;-61
2023/11/23 05:19:56;;;;;;;21.40;15.88;;;179.30;2252.80;;;;;;5072132;28;20020;-61
2023/11/23 05:22:22;;;;;;;23.35;16.48;;;154.50;2252.80;;;;;;5071981;28;20428;-62
2023/11/23 05:24:48;;;;;;;30.25;19.17;;;179.20;2252.80;;;;;;5071947;28;20031;-62
2023/11/23 05:27:14;;;;;;;23.52;15.75;;;179.20;2252.80;;;;;;5072237;28;20024;-61
2023/11/23 05:29:39;;;;;;;20.58;14.60;;;179.30;2252.80;;;;;;5071663;28;20036;-67
2023/11/23 05:32:05;;;;;;;23.80;15.68;;;179.30;2252.80;;;;;;5071838;28;20028;-61
2023/11/23 05:34:31;;;;;;;23.08;14.63;;;179.30;2252.80;;;;;;5071669;28;20410;-61
2023/11/23 05:36:57;;;;;;;30.35;18.38;;;179.30;2252.80;;;;;;5071986;28;20110;-61
2023/11/23 05:39:23;;;;;;;24.63;15.27;;;179.30;2252.80;;;;;;5071850;28;20051;-64
2023/11/23 05:41:48;;;;;;;20.92;13.98;;;179.30;2252.80;;;;;;5071694;28;20382;-62
2023/11/23 05:44:14;;;;;;;16.60;12.18;;;179.40;2252.80;;;;;;5067930;28;20070;-61
2023/11/23 05:46:40;;;;;;;16.17;12.45;;;179.40;2252.80;;;;;;5056540;28;20428;-63
2023/11/23 05:49:07;;;;;;;20.33;13.25;;;179.30;2252.80;;;;;;5051531;28;20040;-61
2023/11/23 05:51:32;;;;;;;30.67;21.90;;;179.40;2252.80;;;;;;5050562;28;20048;-61
2023/11/23 05:53:58;;;;;;;22.67;15.00;;;179.40;2252.80;;;;;;5051370;28;20082;-61
2023/11/23 05:56:24;;;;;;;24.80;18.42;;;179.40;2252.80;;;;;;5051490;28;20111;-67
2023/11/23 05:58:50;;;;;;;22.45;16.27;;;179.20;2252.80;;;;;;5051098;28;20108;-66
2023/11/23 06:01:16;;;;;;;21.02;14.68;;;179.30;2252.80;;;;;;5062186;28;20020;-64
2023/11/23 06:03:41;;;;;;;26.73;19.08;;;179.40;2252.80;;;;;;5071256;28;20032;-61
2023/11/23 06:06:16;;;;;;;58.28;35.10;;;179.30;2252.80;;;;;;5071330;28;20032;-61
2023/11/23 06:08:42;;;;;;;20.90;14.35;;;179.30;2252.80;;;;;;5070499;28;20383;-60
2023/11/23 06:11:07;;;;;;;20.40;14.75;;;179.20;2252.80;;;;;;5070720;28;20044;-61
2023/11/23 06:13:33;;;;;;;21.45;12.38;;;179.30;2252.80;;;;;;5070981;28;20245;-61
2023/11/23 06:15:59;;;;;;;18.90;12.27;;;179.30;2252.80;;;;;;5070938;28;20031;-61
2023/11/23 06:18:24;;;;;;;20.45;14.55;;;154.50;2252.80;;;;;;5071002;28;20034;-61
2023/11/23 06:20:50;;;;;;;20.02;12.32;;;154.40;2252.80;;;;;;5070967;28;20635;-61
2023/11/23 06:23:16;;;;;;;17.55;12.27;;;154.40;2252.80;;;;;;5071031;28;20094;-61
2023/11/23 06:25:41;;;;;;;16.05;11.40;;;154.50;2252.80;;;;;;5070620;28;20021;-61
2023/11/23 06:28:07;;;;;;;21.38;13.13;;;179.20;2252.80;;;;;;5070880;28;20040;-61
2023/11/23 06:30:33;;;;;;;37.35;22.15;;;179.30;2252.80;;;;;;5070301;28;20037;-60
2023/11/23 06:32:58;;;;;;;26.45;17.95;;;179.20;2252.80;;;;;;5070665;28;20043;-61
2023/11/23 06:35:24;;;;;;;33.03;19.98;;;179.40;2252.80;;;;;;5070770;28;20417;-60
2023/11/23 06:37:50;;;;;;;28.13;18.17;;;179.30;2252.80;;;;;;5070638;28;20021;-67
2023/11/23 06:40:16;;;;;;;23.60;17.67;;;179.20;2252.80;;;;;;5070647;28;20020;-64
2023/11/23 06:42:42;;;;;;;19.27;12.75;;;179.30;2252.80;;;;;;5070665;28;20029;-65
2023/11/23 06:45:09;;;;;;;21.27;14.23;;;179.30;2252.80;;;;;;5070067;28;20043;-68
2023/11/23 06:47:34;;;;;;;24.35;16.02;;;179.40;2252.80;;;;;;5070391;28;20032;-64
2023/11/23 06:50:00;;;;;;;19.85;13.50;;;179.60;2252.80;;;;;;5070110;28;20029;-69
2023/11/23 06:52:26;;;;;;;24.33;18.50;;;179.70;2252.80;;;;;;5070445;28;20036;-63
2023/11/23 06:54:52;;;;;;;21.38;13.32;;;179.80;2252.80;;;;;;5070146;28;20066;-65
2023/11/23 06:57:19;;;;;;;38.22;25.42;;;179.70;2252.80;;;;;;5070313;28;20150;-66
2023/11/23 06:59:44;;;;;;;61.05;39.75;;;179.90;2252.80;;;;;;5070064;28;20028;-67
2023/11/23 07:02:10;;;;;;;58.60;35.45;;;179.90;2252.80;;;;;;5069971;28;20021;-65
2023/11/23 07:04:36;;;;;;;35.58;22.77;;;180.00;2252.80;;;;;;5070105;28;20026;-64
2023/11/23 07:07:03;;;;;;;159.10;90.70;;;179.90;2252.80;;;;;;5070060;28;20032;-64
2023/11/23 07:09:29;;;;;;;25.65;17.48;;;180.00;2252.80;;;;;;5069863;28;20028;-65
2023/11/23 07:11:55;;;;;;;24.10;15.80;;;179.90;2252.80;;;;;;5069903;28;20367;-65
2023/11/23 07:14:21;;;;;;;47.00;31.73;;;179.90;2252.80;;;;;;5069841;28;20078;-65
2023/11/23 07:16:51;;;;;;;108.60;72.97;;;179.90;2252.80;;;;;;5070104;28;20021;-66
2023/11/23 07:19:18;;;;;;;74.72;49.50;;;179.90;2252.80;;;;;;5050360;28;20537;-65
2023/11/23 07:21:43;;;;;;;224.75;135.45;;;179.90;2252.80;;;;;;5050344;28;20024;-64
2023/11/23 07:24:09;;;;;;;167.48;104.85;;;180.00;2252.80;;;;;;5049308;28;20550;-65
2023/11/23 07:26:35;;;;;;;37.20;24.90;;;180.10;2252.80;;;;;;5049915;28;20021;-65
2023/11/23 07:29:00;;;;;;;33.17;23.98;;;204.80;2252.80;;;;;;5049507;28;20037;-64
2023/11/23 07:31:26;;;;;;;34.95;21.65;;;204.80;2252.80;;;;;;5049740;28;20443;-65
2023/11/23 07:33:52;;;;;;;31.83;24.33;;;180.10;2252.80;;;;;;5049839;28;20403;-65
2023/11/23 07:36:18;;;;;;;29.27;20.95;;;180.10;2252.80;;;;;;5049692;28;20053;-66
2023/11/23 07:38:45;;;;;;;25.27;15.63;;;180.00;2252.80;;;;;;5049710;28;20467;-65
2023/11/23 07:41:11;;;;;;;27.20;19.17;;;180.10;2252.80;;;;;;5049377;28;20064;-65
2023/11/23 07:43:38;;;;;;;29.50;19.17;;;204.80;2252.80;;;;;;5049266;28;20048;-66
2023/11/23 07:46:05;;;;;;;28.83;19.85;;;204.90;2252.80;;;;;;5049514;28;20075;-69
2023/11/23 07:48:31;;;;;;;29.23;18.13;;;180.10;2252.80;;;;;;5049378;28;20013;-65
2023/11/23 07:50:57;;;;;;;29.55;17.00;;;204.90;2252.80;;;;;;5049651;28;20032;-65
2023/11/23 07:53:26;;;;;;;21.85;14.43;;;204.90;2252.80;;;;;;5049528;28;20503;-65
2023/11/23 07:55:52;;;;;;;17.33;12.13;;;180.10;2252.80;;;;;;5049323;28;20029;-64
2023/11/23 07:58:18;;;;;;;22.77;14.38;;;204.80;2252.80;;;;;;5031365;28;20033;-65
2023/11/23 08:00:43;;;;;;;17.35;13.35;;;180.10;2252.80;;;;;;5049099;28;20032;-65
2023/11/23 08:03:10;;;;;;;17.63;12.65;;;204.80;2252.80;;;;;;5049439;28;20028;-65
2023/11/23 08:05:36;;;;;;;20.42;13.13;;;204.90;2252.80;;;;;;5049454;28;20021;-65
2023/11/23 08:08:03;;;;;;;19.25;12.68;;;205.20;2252.80;;;;;;5049197;28;20387;-66
2023/11/23 08:10:29;;;;;;;16.27;12.18;;;205.20;2252.80;;;;;;5048893;28;20128;-66
2023/11/23 08:12:55;;;;;;;26.42;14.82;;;205.20;2252.80;;;;;;5049194;28;20384;-65
2023/11/23 08:15:21;;;;;;;32.15;20.35;;;205.40;2252.80;;;;;;5048957;28;20017;-66
2023/11/23 08:17:48;;;;;;;22.33;15.02;;;205.40;2252.80;;;;;;5049497;28;20545;-65
2023/11/23 08:20:14;;;;;;;20.73;14.85;;;205.50;2252.80;;;;;;5061544;28;20025;-66
2023/11/23 08:22:40;;;;;;;22.95;18.38;;;205.60;2252.80;;;;;;5069265;28;20029;-66
2023/11/23 08:25:06;;;;;;;20.75;14.38;;;205.70;2252.80;;;;;;5065875;28;20566;-65
2023/11/23 08:27:32;;;;;;;37.67;24.85;;;205.60;2252.80;;;;;;5068250;28;20506;-65
2023/11/23 08:29:58;;;;;;;22.92;14.40;;;205.40;2252.80;;;;;;5068929;28;20021;-65
2023/11/23 08:32:23;;;;;;;21.95;16.88;;;205.40;2252.80;;;;;;5069085;28;20364;-65
2023/11/23 08:34:49;;;;;;;23.90;19.27;;;205.30;2252.80;;;;;;5069041;28;20029;-65
2023/11/23 08:37:15;;;;;;;21.30;16.30;;;205.30;2252.80;;;;;;5071458;28;20495;-65
2023/11/23 08:39:41;;;;;;;18.60;12.38;;;205.30;2252.80;;;;;;5060611;28;20028;-65
2023/11/23 08:42:07;;;;;;;19.45;13.90;;;205.50;2252.80;;;;;;5056905;28;20028;-63
2023/11/23 08:44:33;;;;;;;33.58;23.63;;;205.50;2252.80;;;;;;5062377;28;20025;-67
2023/11/23 08:47:00;;;;;;;18.92;13.35;;;205.70;2252.80;;;;;;5063474;28;20356;-64
2023/11/23 08:49:26;;;;;;;57.17;38.78;;;205.70;2252.80;;;;;;5062280;28;20094;-66
2023/11/23 08:51:52;;;;;;;43.20;31.58;;;205.60;2252.80;;;;;;5063421;28;20047;-65
2023/11/23 08:54:18;;;;;;;41.50;34.55;;;205.60;2252.80;;;;;;5062549;28;20418;-65
2023/11/23 08:56:46;;;;;;;22.63;16.98;;;230.40;2252.80;;;;;;5063336;28;20028;-64
2023/11/23 08:59:12;;;;;;;22.58;14.93;;;230.40;2252.80;;;;;;5045265;28;20087;-65
2023/11/23 09:01:38;;;;;;;16.55;12.52;;;230.50;2252.80;;;;;;5052043;28;20031;-67
2023/11/23 09:04:05;;;;;;;22.08;16.27;;;230.50;2252.80;;;;;;5052484;28;20021;-65
2023/11/23 09:06:31;;;;;;;21.95;15.15;;;230.50;2252.80;;;;;;5052638;28;20028;-66
2023/11/23 09:09:00;;;;;;;17.13;12.90;;;205.70;2252.80;;;;;;5052290;28;20028;-66
2023/11/23 09:11:26;;;;;;;20.02;14.70;;;230.50;2252.80;;;;;;5052104;28;20041;-66
2023/11/23 09:13:52;;;;;;;19.27;13.60;;;230.60;2252.80;;;;;;5054884;28;20033;-67
2023/11/23 09:16:18;;;;;;;19.10;14.98;;;230.60;2252.80;;;;;;5052074;28;20079;-66
2023/11/23 09:18:44;;;;;;;22.52;15.75;;;230.40;2252.80;;;;;;5052469;28;20029;-66
2023/11/23 09:21:10;;;;;;;26.58;16.35;;;205.60;2252.80;;;;;;5052234;28;20025;-66
2023/11/23 09:23:36;;;;;;;22.90;15.10;;;230.40;2252.80;;;;;;5057356;28;20020;-67
2023/11/23 09:26:04;;;;;;;26.52;18.40;;;230.40;2252.80;;;;;;5052094;28;20025;-66
2023/11/23 09:28:30;;;;;;;27.88;20.13;;;230.60;2252.80;;;;;;5041027;28;20506;-66
2023/11/23 09:30:56;;;;;;;28.35;19.70;;;230.50;2252.80;;;;;;5071923;28;20048;-66
2023/11/23 09:33:22;;;;;;;26.60;20.00;;;230.80;2252.80;;;;;;5071566;28;20503;-66
2023/11/23 09:35:48;;;;;;;20.30;14.75;;;230.90;2252.80;;;;;;5071808;28;20032;-66
2023/11/23 09:38:14;;;;;;;27.85;18.77;;;230.90;2252.80;;;;;;5071782;28;20033;-66
2023/11/23 09:40:40;;;;;;;34.92;23.05;;;230.90;2252.80;;;;;;5071191;28;20024;-66
2023/11/23 09:43:07;;;;;;;18.25;12.25;;;230.90;2252.80;;;;;;5071808;28;20025;-66
2023/11/23 09:45:33;;;;;;;21.42;16.55;;;230.80;2252.80;;;;;;5060423;28;20037;-66
2023/11/23 09:48:01;;;;;;;29.27;16.40;;;230.80;2252.80;;;;;;5051002;28;20813;-66
2023/11/23 09:50:27;;;;;;;23.23;15.68;;;230.90;2252.80;;;;;;5054715;28;20036;-66
2023/11/23 09:52:54;;;;;;;27.42;16.55;;;230.90;2252.80;;;;;;5069800;28;20478;-67
2023/11/23 09:55:20;;;;;;;28.05;17.60;;;230.90;2252.80;;;;;;5056655;28;20056;-66
2023/11/23 09:57:48;;;;;;;23.27;13.40;;;231.10;2252.80;;;;;;5051671;28;20471;-66
2023/11/23 10:00:15;;;;;;;20.60;13.70;;;231.00;2252.80;;;;;;5051474;28;20017;-67
2023/11/23 10:02:55;;;;;;;17.35;12.38;;;230.90;2252.80;;;;;;5051232;28;20478;-67
2023/11/23 10:05:26;;;;;;;16.88;11.95;;;230.90;2252.80;;;;;;5051213;28;20021;-66
2023/11/23 10:07:54;;;;;;;19.25;12.80;;;231.00;2252.80;;;;;;5051111;28;20099;-67
2023/11/23 10:10:20;;;;;;;16.20;11.90;;;231.00;2252.80;;;;;;5050757;28;20056;-66
2023/11/23 10:12:46;;;;;;;18.00;11.93;;;230.90;2252.80;;;;;;5056497;28;20032;-65
2023/11/23 10:15:12;;;;;;;17.50;12.05;;;230.70;2252.80;;;;;;5056064;28;20467;-66
2023/11/23 10:17:41;;;;;;;16.65;12.15;;;231.00;2252.80;;;;;;5050880;28;20029;-67
2023/11/23 10:20:12;;;;;;;32.45;20.90;;;230.90;2252.80;;;;;;5058616;28;20024;-66
2023/11/23 10:22:47;;;;;;;19.85;14.02;;;231.10;2252.80;;;;;;5070895;28;20024;-66
2023/11/23 10:25:31;;;;;;;42.75;25.98;;;231.20;2252.80;;;;;;5070753;28;20398;-66
2023/11/23 10:27:59;;;;;;;74.68;42.97;;;231.30;2252.80;;;;;;5071146;28;20024;-65
2023/11/23 10:30:25;;;;;;;72.75;40.05;;;231.30;2252.80;;;;;;5070638;28;20112;-66
2023/11/23 10:32:53;;;;;;;37.58;24.55;;;256.00;2252.80;;;;;;5070516;28;20032;-67
2023/11/23 10:35:20;;;;;;;15.95;11.25;;;256.00;2252.80;;;;;;5070513;28;20020;-67
2023/11/23 10:37:54;;;;;;;17.40;11.85;;;256.10;2252.80;;;;;;5070905;28;20102;-66
2023/11/23 10:40:24;;;;;;;14.13;10.85;;;231.20;2252.80;;;;;;5070198;28;20540;-66
2023/11/23 10:42:53;;;;;;;19.60;14.63;;;256.00;2252.80;;;;;;5070403;28;20025;-65
2023/11/23 10:45:20;;;;;;;48.10;35.72;;;231.30;2252.80;;;;;;5070137;28;20020;-67
2023/11/23 10:47:53;;;;;;;20.83;16.27;;;256.10;2252.80;;;;;;5051925;28;20124;-66
2023/11/23 10:50:22;;;;;;;17.17;12.93;;;256.00;2252.80;;;;;;5070299;28;20035;-67
2023/11/23 10:52:48;;;;;;;41.05;32.50;;;230.90;2252.80;;;;;;5070344;28;20387;-66
2023/11/23 10:55:14;;;;;;;18.60;13.52;;;231.00;2252.80;;;;;;5069901;28;20025;-66
2023/11/23 10:57:46;;;;;;;17.42;13.02;;;231.00;2252.80;;;;;;5057679;28;20036;-67
2023/11/23 11:00:16;;;;;;;25.17;17.50;;;256.00;2252.80;;;;;;5058757;28;20032;-66
2023/11/23 11:02:44;;;;;;;36.45;21.30;;;256.30;2252.80;;;;;;5065532;28;20040;-66
2023/11/23 11:05:28;;;;;;;62.08;32.05;;;256.50;2252.80;;;;;;5061619;28;20023;-66
2023/11/23 11:08:07;;;;;;;52.50;29.65;;;256.60;2252.80;;;;;;5070013;28;20044;-65
2023/11/23 11:10:55;;;;;;;26.80;21.65;;;256.80;2252.80;;;;;;5069788;28;20074;-65
2023/11/23 11:13:23;;;;;;;29.35;20.52;;;256.90;2252.80;;;;;;5069702;28;20041;-66
2023/11/23 11:15:52;;;;;;;28.30;21.15;;;256.80;2252.80;;;;;;5051996;28;20417;-65
2023/11/23 11:18:26;;;;;;;32.38;23.45;;;281.60;2278.40;;;;;;5070056;28;20029;-66
2023/11/23 11:21:11;;;;;;;24.52;18.42;;;256.70;2252.80;;;;;;5069725;28;20021;-65
2023/11/23 11:23:50;;;;;;;41.72;32.72;;;281.60;2278.40;;;;;;5061095;28;20081;-65
2023/11/23 11:26:27;;;;;;;60.95;42.83;;;281.70;2278.40;;;;;;5049980;28;20021;-65
2023/11/23 11:29:05;;;;;;;63.50;38.22;;;281.80;2278.40;;;;;;5049854;28;20104;-66
2023/11/23 11:31:33;;;;;;;66.28;41.75;;;281.60;2278.40;;;;;;5049646;28;20032;-65
2023/11/23 11:34:01;;;;;;;36.65;27.60;;;256.80;2252.80;;;;;;5049640;28;20029;-66
2023/11/23 11:36:30;;;;;;;37.38;25.20;;;256.80;2252.80;;;;;;5031486;28;20032;-64
2023/11/23 11:38:59;;;;;;;35.85;25.27;;;281.70;2278.40;;;;;;5049720;28;20023;-65
2023/11/23 11:41:30;;;;;;;34.63;25.33;;;281.90;2278.40;;;;;;5052619;28;20108;-66
2023/11/23 11:43:58;;;;;;;38.15;24.92;;;256.30;2252.80;;;;;;5066837;28;20042;-65
2023/11/23 11:46:24;;;;;;;27.48;18.95;;;256.00;2252.80;;;;;;5069672;28;20021;-65
2023/11/23 11:48:50;;;;;;;32.65;22.75;;;231.10;2252.80;;;;;;5069434;28;20107;-65
2023/11/23 11:51:16;;;;;;;30.95;22.17;;;256.10;2252.80;;;;;;5069721;28;20459;-65
2023/11/23 11:53:46;;;;;;;55.92;34.05;;;256.40;2252.80;;;;;;5069248;28;20103;-65
2023/11/23 11:56:13;;;;;;;48.03;34.00;;;256.80;2252.80;;;;;;5069442;28;20024;-65